Time;durP1;ratioP1;P1;durP2;ratioP2;P2;SDS_P1;SDS_P2;PMS_P1;PMS_P2;Temp;Humidity;BMP_temperature;BMP_pressure;BME280_temperature;BME280_humidity;BME280_pressure;Samples;Min_cycle;Max_cycle;Signal;HPM_P1;HPM_P2
2021/01/12 00:01:43;;;;;;;52.58;29.58;;;2.80;62.80;;;;;;5077814;28;20033;-42
2021/01/12 00:04:09;;;;;;;52.28;28.55;;;2.90;62.90;;;;;;5077263;28;20032;-42
2021/01/12 00:06:35;;;;;;;43.70;23.20;;;2.90;62.60;;;;;;5077513;28;20394;-42
2021/01/12 00:09:02;;;;;;;64.90;35.35;;;2.90;62.40;;;;;;5077281;28;20028;-42
2021/01/12 00:11:28;;;;;;;50.95;29.17;;;2.90;62.40;;;;;;5077609;28;20394;-42
2021/01/12 00:13:53;;;;;;;39.33;22.40;;;2.90;62.50;;;;;;5076709;28;20032;-42
2021/01/12 00:16:20;;;;;;;44.55;26.70;;;2.90;62.80;;;;;;5077515;28;20024;-42
2021/01/12 00:18:47;;;;;;;48.35;26.88;;;2.90;62.90;;;;;;5076794;28;20449;-42
2021/01/12 00:21:13;;;;;;;40.40;22.23;;;2.90;63.00;;;;;;5076225;28;20049;-42
2021/01/12 00:23:39;;;;;;;39.10;21.92;;;2.80;62.90;;;;;;5077388;28;20027;-42
2021/01/12 00:26:06;;;;;;;38.45;22.17;;;2.80;63.10;;;;;;5076928;28;20483;-42
2021/01/12 00:28:34;;;;;;;47.15;25.48;;;2.80;62.80;;;;;;5076846;28;20028;-42
2021/01/12 00:31:04;;;;;;;100.15;45.95;;;2.80;62.70;;;;;;5077131;28;20036;-42
2021/01/12 00:33:33;;;;;;;59.58;29.45;;;2.80;62.40;;;;;;5076719;28;20028;-42
2021/01/12 00:36:08;;;;;;;40.35;23.65;;;2.80;62.10;;;;;;5076636;28;20356;-42
2021/01/12 00:38:35;;;;;;;42.95;23.65;;;2.80;62.10;;;;;;5076341;28;20097;-42
2021/01/12 00:41:06;;;;;;;42.42;22.42;;;2.80;62.20;;;;;;5076443;28;20115;-41
2021/01/12 00:43:32;;;;;;;38.58;20.00;;;2.80;62.50;;;;;;5076392;28;20024;-42
2021/01/12 00:45:58;;;;;;;33.63;18.30;;;2.70;62.40;;;;;;5076735;28;20033;-42
2021/01/12 00:48:24;;;;;;;35.30;19.27;;;2.80;62.40;;;;;;5076636;28;20020;-42
2021/01/12 00:50:49;;;;;;;40.97;22.45;;;2.80;62.30;;;;;;5076210;28;20036;-42
2021/01/12 00:53:15;;;;;;;36.75;20.27;;;2.80;62.50;;;;;;5075807;28;20088;-42
2021/01/12 00:55:41;;;;;;;42.15;19.98;;;2.80;62.30;;;;;;5076506;28;20029;-42
2021/01/12 00:58:06;;;;;;;43.10;21.45;;;2.80;61.80;;;;;;5076326;28;20025;-43
2021/01/12 01:00:32;;;;;;;38.13;20.48;;;2.80;61.60;;;;;;5075898;28;20304;-41
2021/01/12 01:02:58;;;;;;;36.35;20.55;;;2.80;61.70;;;;;;5076397;28;20483;-42
2021/01/12 01:05:23;;;;;;;32.08;19.40;;;2.80;61.70;;;;;;5075880;28;20032;-42
2021/01/12 01:07:49;;;;;;;38.78;22.30;;;2.90;61.80;;;;;;5076149;28;20025;-42
2021/01/12 01:10:15;;;;;;;34.63;19.45;;;2.90;61.70;;;;;;5076170;28;20334;-41
2021/01/12 01:12:40;;;;;;;37.75;18.40;;;2.90;62.00;;;;;;5075828;28;20067;-42
2021/01/12 01:15:07;;;;;;;36.13;19.98;;;2.90;61.90;;;;;;5075218;28;20036;-42
2021/01/12 01:17:35;;;;;;;40.97;22.63;;;2.90;61.80;;;;;;5076401;28;20025;-42
2021/01/12 01:20:02;;;;;;;36.80;19.83;;;2.90;61.80;;;;;;5075128;28;20080;-42
2021/01/12 01:22:28;;;;;;;34.92;18.23;;;2.90;61.70;;;;;;5075644;28;20099;-43
2021/01/12 01:24:53;;;;;;;34.78;17.70;;;2.90;61.70;;;;;;5075227;28;20036;-41
2021/01/12 01:27:20;;;;;;;29.20;16.88;;;2.90;61.80;;;;;;5075939;28;20052;-42
2021/01/12 01:29:46;;;;;;;33.70;18.23;;;2.80;61.50;;;;;;5074975;28;20406;-42
2021/01/12 01:32:12;;;;;;;34.08;17.73;;;2.80;61.20;;;;;;5075866;28;20051;-42
2021/01/12 01:34:37;;;;;;;36.30;17.15;;;2.80;61.10;;;;;;5075305;28;20032;-42
2021/01/12 01:37:04;;;;;;;34.17;18.15;;;2.80;61.00;;;;;;5075480;28;20422;-43
2021/01/12 01:39:30;;;;;;;27.50;15.45;;;2.80;60.90;;;;;;5075254;28;20449;-41
2021/01/12 01:42:00;;;;;;;31.15;15.02;;;2.80;60.90;;;;;;5075576;28;20059;-42
2021/01/12 01:44:25;;;;;;;26.92;14.50;;;2.80;61.00;;;;;;5075478;28;20327;-42
2021/01/12 01:46:51;;;;;;;25.67;14.10;;;2.80;60.90;;;;;;5075667;28;20036;-42
2021/01/12 01:49:18;;;;;;;28.88;15.23;;;2.80;61.30;;;;;;5075091;28;20020;-42
2021/01/12 01:51:45;;;;;;;31.50;16.17;;;2.80;60.70;;;;;;5075386;28;20074;-42
2021/01/12 01:54:12;;;;;;;28.98;16.55;;;2.70;60.90;;;;;;5075084;28;20032;-42
2021/01/12 01:56:38;;;;;;;29.13;15.43;;;2.70;61.10;;;;;;5076103;28;20119;-42
2021/01/12 01:59:03;;;;;;;25.92;14.77;;;2.70;61.30;;;;;;5075125;28;20178;-43
2021/01/12 02:01:29;;;;;;;25.70;12.45;;;2.70;61.20;;;;;;5075866;28;20039;-42
2021/01/12 02:04:22;;;;;;;33.55;16.55;;;2.70;61.30;;;;;;5076592;28;20315;-42
2021/01/12 02:06:50;;;;;;;31.38;16.10;;;2.70;61.10;;;;;;5079740;28;20067;-42
2021/01/12 02:09:47;;;;;;;28.20;14.45;;;2.70;61.20;;;;;;5078790;28;20040;-42
2021/01/12 02:12:28;;;;;;;26.20;13.52;;;2.70;61.20;;;;;;5079315;28;20043;-42
2021/01/12 02:14:56;;;;;;;24.67;12.70;;;2.80;61.20;;;;;;5079483;28;20091;-42
2021/01/12 02:17:29;;;;;;;31.63;16.08;;;2.80;61.10;;;;;;5079404;28;20020;-42
2021/01/12 02:19:56;;;;;;;28.23;14.68;;;2.80;60.90;;;;;;5078174;28;20060;-42
2021/01/12 02:22:24;;;;;;;25.52;13.80;;;2.80;60.80;;;;;;5079432;28;20068;-42
2021/01/12 02:24:49;;;;;;;21.02;11.48;;;2.80;60.50;;;;;;5079233;28;20024;-42
2021/01/12 02:27:22;;;;;;;18.45;10.50;;;2.80;60.40;;;;;;5079238;28;20074;-42
2021/01/12 02:29:51;;;;;;;20.23;11.43;;;2.80;60.40;;;;;;5079262;28;20049;-41
2021/01/12 02:32:18;;;;;;;28.67;13.13;;;2.80;60.40;;;;;;5079334;28;20453;-42
2021/01/12 02:34:46;;;;;;;16.88;9.88;;;2.80;60.20;;;;;;5078033;28;20025;-42
2021/01/12 02:37:17;;;;;;;17.45;10.63;;;2.80;60.30;;;;;;5079068;28;20060;-42
2021/01/12 02:39:54;;;;;;;17.65;9.93;;;2.80;60.10;;;;;;5078694;28;20024;-42
2021/01/12 02:42:20;;;;;;;25.45;12.52;;;2.80;60.20;;;;;;5078964;28;20031;-41
2021/01/12 02:44:46;;;;;;;22.58;11.93;;;2.80;60.10;;;;;;5078555;28;20318;-41
2021/01/12 02:47:12;;;;;;;21.30;11.98;;;2.80;59.90;;;;;;5078733;28;20028;-42
2021/01/12 02:49:37;;;;;;;31.27;13.93;;;2.80;59.90;;;;;;5078302;28;20021;-42
2021/01/12 02:52:03;;;;;;;26.58;14.38;;;2.80;59.90;;;;;;5078787;28;20037;-43
2021/01/12 02:54:30;;;;;;;21.58;12.15;;;2.80;60.00;;;;;;5078006;28;20338;-42
2021/01/12 02:56:55;;;;;;;23.63;12.23;;;2.80;60.10;;;;;;5078088;28;20044;-42
2021/01/12 02:59:21;;;;;;;22.52;12.40;;;2.80;60.30;;;;;;5078301;28;20021;-42
2021/01/12 03:01:47;;;;;;;19.52;11.80;;;2.80;60.00;;;;;;5078853;28;20036;-42
2021/01/12 03:04:13;;;;;;;24.67;14.15;;;2.80;60.00;;;;;;5078094;28;20063;-43
2021/01/12 03:06:38;;;;;;;20.98;12.90;;;2.80;60.00;;;;;;5078963;28;20321;-42
2021/01/12 03:09:05;;;;;;;21.05;11.77;;;2.80;60.10;;;;;;5078152;28;20370;-42
2021/01/12 03:11:30;;;;;;;22.35;11.55;;;2.80;60.30;;;;;;5078129;28;20034;-42
2021/01/12 03:13:58;;;;;;;26.00;13.82;;;2.80;60.40;;;;;;5077923;28;20040;-42
2021/01/12 03:16:24;;;;;;;25.77;12.70;;;2.80;60.40;;;;;;5077761;28;20033;-42
2021/01/12 03:18:50;;;;;;;26.65;14.00;;;2.80;60.40;;;;;;5078134;28;20108;-42
2021/01/12 03:21:15;;;;;;;26.92;13.73;;;2.80;60.40;;;;;;5077610;28;20415;-42
2021/01/12 03:23:41;;;;;;;22.00;12.80;;;2.80;60.40;;;;;;5078271;28;20020;-42
2021/01/12 03:26:07;;;;;;;23.25;13.30;;;2.80;60.40;;;;;;5078250;28;20445;-42
2021/01/12 03:28:32;;;;;;;23.83;13.52;;;2.80;60.30;;;;;;5078360;28;20047;-44
2021/01/12 03:30:58;;;;;;;24.00;12.23;;;2.80;60.30;;;;;;5078149;28;20071;-42
2021/01/12 03:33:24;;;;;;;25.42;13.55;;;2.80;60.10;;;;;;5078033;28;20041;-43
2021/01/12 03:35:50;;;;;;;26.98;12.60;;;2.80;60.10;;;;;;5077790;28;20334;-42
2021/01/12 03:38:15;;;;;;;26.10;14.75;;;2.80;60.00;;;;;;5077715;28;20083;-42
2021/01/12 03:40:41;;;;;;;22.48;13.90;;;2.80;59.90;;;;;;5077454;28;20028;-42
2021/01/12 03:43:07;;;;;;;27.10;16.73;;;2.80;59.80;;;;;;5077877;28;20025;-43
2021/01/12 03:45:33;;;;;;;27.30;16.77;;;2.80;59.90;;;;;;5077332;28;20075;-42
2021/01/12 03:47:58;;;;;;;27.67;15.23;;;2.80;60.00;;;;;;5077486;28;20353;-42
2021/01/12 03:50:27;;;;;;;23.42;12.73;;;2.80;60.30;;;;;;5077478;28;20036;-42
2021/01/12 03:52:54;;;;;;;26.77;15.57;;;2.70;60.40;;;;;;5077374;28;20082;-42
2021/01/12 03:55:21;;;;;;;19.75;12.13;;;2.70;60.40;;;;;;5076757;28;20020;-42
2021/01/12 03:57:46;;;;;;;27.65;13.07;;;2.70;60.10;;;;;;5079152;28;20036;-42
2021/01/12 04:00:13;;;;;;;21.77;12.70;;;2.70;59.80;;;;;;5096770;28;20028;-41
2021/01/12 04:02:38;;;;;;;22.83;13.60;;;2.70;59.70;;;;;;5096556;28;20028;-42
2021/01/12 04:05:05;;;;;;;23.92;12.45;;;2.70;59.60;;;;;;5096874;28;20027;-42
2021/01/12 04:07:31;;;;;;;21.83;12.70;;;2.70;59.70;;;;;;5097640;28;20039;-42
2021/01/12 04:09:57;;;;;;;28.67;15.02;;;2.70;59.80;;;;;;5096950;28;20418;-42
2021/01/12 04:12:22;;;;;;;26.38;14.98;;;2.70;60.00;;;;;;5097582;28;20442;-42
2021/01/12 04:14:48;;;;;;;36.88;18.63;;;2.70;60.00;;;;;;5097295;28;20024;-42
2021/01/12 04:17:14;;;;;;;43.78;26.08;;;2.70;60.00;;;;;;5095866;28;20035;-43
2021/01/12 04:19:39;;;;;;;53.42;30.30;;;2.70;60.10;;;;;;5094886;28;20469;-42
2021/01/12 04:22:05;;;;;;;54.20;30.85;;;2.70;60.10;;;;;;5096301;28;20112;-42
2021/01/12 04:24:31;;;;;;;33.30;20.13;;;2.70;60.10;;;;;;5094959;28;20024;-41
2021/01/12 04:26:56;;;;;;;29.73;17.42;;;2.80;60.10;;;;;;5095378;28;20070;-43
2021/01/12 04:29:22;;;;;;;23.65;14.10;;;2.80;60.00;;;;;;5095035;28;20027;-42
2021/01/12 04:31:48;;;;;;;25.13;13.35;;;2.80;60.00;;;;;;5096147;28;20055;-43
2021/01/12 04:34:13;;;;;;;27.52;12.32;;;2.80;60.00;;;;;;5096913;28;20045;-43
2021/01/12 04:36:39;;;;;;;23.35;10.45;;;2.80;59.90;;;;;;5097401;28;20024;-42
2021/01/12 04:39:05;;;;;;;23.02;11.98;;;2.80;59.70;;;;;;5096517;28;20445;-42
2021/01/12 04:41:30;;;;;;;21.88;10.95;;;2.90;59.90;;;;;;5097386;28;20031;-41
2021/01/12 04:43:56;;;;;;;24.58;12.70;;;2.80;59.70;;;;;;5097037;28;20329;-42
2021/01/12 04:46:22;;;;;;;22.83;12.63;;;2.80;59.70;;;;;;5096994;28;20110;-42
2021/01/12 04:48:50;;;;;;;23.50;12.95;;;2.80;59.50;;;;;;5096834;28;20054;-42
2021/01/12 04:51:16;;;;;;;24.77;10.40;;;2.80;59.50;;;;;;5096373;28;20036;-42
2021/01/12 04:53:47;;;;;;;9.93;6.05;;;2.70;59.30;;;;;;5095987;28;20024;-42
2021/01/12 04:56:22;;;;;;;18.42;6.28;;;2.70;58.00;;;;;;5096804;28;20028;-42
2021/01/12 04:58:49;;;;;;;9.85;5.55;;;2.60;57.60;;;;;;5096977;28;20028;-42
2021/01/12 05:01:17;;;;;;;12.20;7.20;;;2.60;57.70;;;;;;5096228;28;20119;-41
2021/01/12 05:03:45;;;;;;;16.27;8.13;;;2.60;57.50;;;;;;5096853;28;20032;-42
2021/01/12 05:06:22;;;;;;;15.18;8.10;;;2.60;57.10;;;;;;5095909;28;20106;-42
2021/01/12 05:08:56;;;;;;;15.10;7.32;;;2.60;56.90;;;;;;5088152;28;20036;-42
2021/01/12 05:11:27;;;;;;;23.67;9.80;;;2.60;56.80;;;;;;5095083;28;20023;-42
2021/01/12 05:14:00;;;;;;;17.92;9.10;;;2.60;56.70;;;;;;5094910;28;20059;-42
2021/01/12 05:16:26;;;;;;;25.73;10.70;;;2.50;56.60;;;;;;5095130;28;20024;-42
2021/01/12 05:18:54;;;;;;;18.70;9.55;;;2.50;56.70;;;;;;5095624;28;20100;-42
2021/01/12 05:21:23;;;;;;;18.00;9.30;;;2.50;56.90;;;;;;5095477;28;20101;-42
2021/01/12 05:24:04;;;;;;;36.33;11.35;;;2.40;56.70;;;;;;5095906;28;20329;-42
2021/01/12 05:26:36;;;;;;;17.55;9.15;;;2.40;56.60;;;;;;5096695;28;20024;-42
2021/01/12 05:29:04;;;;;;;30.02;11.75;;;2.40;56.90;;;;;;5095401;28;20028;-42
2021/01/12 05:31:30;;;;;;;16.33;9.00;;;2.30;57.10;;;;;;5095125;28;20357;-41
2021/01/12 05:34:01;;;;;;;21.90;10.18;;;2.30;57.10;;;;;;5094182;28;20158;-43
2021/01/12 05:36:29;;;;;;;22.17;9.88;;;2.40;56.90;;;;;;5095960;28;20028;-41
2021/01/12 05:38:59;;;;;;;16.67;9.40;;;2.30;56.80;;;;;;5094602;28;20040;-42
2021/01/12 05:41:27;;;;;;;25.33;11.45;;;2.30;56.80;;;;;;5095261;28;20008;-42
2021/01/12 05:43:52;;;;;;;32.42;12.82;;;2.40;57.00;;;;;;5095243;28;20036;-42
2021/01/12 05:46:18;;;;;;;16.92;10.13;;;2.40;57.10;;;;;;5095338;28;20024;-41
2021/01/12 05:48:46;;;;;;;19.98;10.73;;;2.30;56.90;;;;;;5095391;28;20130;-42
2021/01/12 05:51:16;;;;;;;39.45;14.85;;;2.30;56.50;;;;;;5095810;28;20032;-41
2021/01/12 05:53:48;;;;;;;25.42;11.32;;;2.30;56.60;;;;;;5095092;28;20123;-41
2021/01/12 05:56:22;;;;;;;34.22;13.73;;;2.30;56.70;;;;;;5095196;28;20028;-41
2021/01/12 05:58:49;;;;;;;30.48;13.38;;;2.30;56.90;;;;;;5095132;28;20390;-42
2021/01/12 06:01:42;;;;;;;37.78;13.93;;;2.40;57.10;;;;;;5094865;28;20299;-41
2021/01/12 06:04:13;;;;;;;32.35;12.15;;;2.40;56.80;;;;;;5093816;28;20368;-41
2021/01/12 06:06:39;;;;;;;;;;;2.40;56.30;;;;;;5096194;28;20032;-41
2021/01/12 06:09:06;;;;;;;38.25;12.82;;;2.40;56.70;;;;;;5091779;28;20006;-41
2021/01/12 06:11:34;;;;;;;18.02;9.45;;;2.40;56.50;;;;;;5095454;28;20024;-41
2021/01/12 06:14:07;;;;;;;31.60;10.50;;;2.40;56.10;;;;;;5094211;28;20073;-41
2021/01/12 06:16:35;;;;;;;20.48;10.50;;;2.40;56.20;;;;;;5094738;28;20020;-41
2021/01/12 06:19:20;;;;;;;26.55;11.20;;;2.40;56.40;;;;;;5093410;28;20024;-41
2021/01/12 06:21:55;;;;;;;25.15;10.20;;;2.40;56.40;;;;;;5094615;28;20368;-41
2021/01/12 06:24:27;;;;;;;31.85;12.63;;;2.50;56.50;;;;;;5094853;28;20039;-41
2021/01/12 06:26:53;;;;;;;34.22;15.15;;;2.50;56.50;;;;;;5094162;28;20024;-41
2021/01/12 06:29:22;;;;;;;40.92;14.30;;;2.50;56.10;;;;;;5093645;28;20025;-41
2021/01/12 06:31:48;;;;;;;37.05;15.98;;;2.50;55.80;;;;;;5093734;28;20039;-41
2021/01/12 06:34:18;;;;;;;38.65;15.48;;;2.50;55.70;;;;;;5092892;28;20020;-41
2021/01/12 06:36:51;;;;;;;39.63;17.23;;;2.60;55.30;;;;;;5104366;28;20034;-41
2021/01/12 06:39:35;;;;;;;28.02;14.15;;;2.50;55.10;;;;;;5093036;28;20028;-41
2021/01/12 06:42:04;;;;;;;31.88;13.65;;;2.50;55.00;;;;;;5103120;28;20404;-41
2021/01/12 06:44:33;;;;;;;43.22;20.02;;;2.50;55.10;;;;;;5114073;28;20027;-40
2021/01/12 06:46:59;;;;;;;41.67;14.50;;;2.50;55.20;;;;;;5114815;28;20024;-41
2021/01/12 06:49:27;;;;;;;34.50;15.65;;;2.50;54.90;;;;;;5098164;28;20027;-42
2021/01/12 06:52:07;;;;;;;48.83;20.10;;;2.50;54.90;;;;;;5098396;28;20032;-43
2021/01/12 06:54:40;;;;;;;30.10;15.98;;;2.50;54.80;;;;;;5098131;28;20020;-43
2021/01/12 06:57:07;;;;;;;39.03;17.55;;;2.50;54.40;;;;;;5098906;28;20043;-43
2021/01/12 06:59:36;;;;;;;27.20;14.13;;;2.40;54.20;;;;;;5098310;28;20246;-42
2021/01/12 07:02:15;;;;;;;29.52;13.40;;;2.40;54.00;;;;;;5098979;28;20028;-42
2021/01/12 07:04:52;;;;;;;28.17;12.60;;;2.40;54.40;;;;;;5092331;28;20016;-42
2021/01/12 07:07:20;;;;;;;34.72;15.35;;;2.40;54.50;;;;;;5097259;28;20120;-41
2021/01/12 07:09:46;;;;;;;29.50;13.95;;;2.30;54.00;;;;;;5097785;28;20024;-41
2021/01/12 07:12:18;;;;;;;31.13;15.43;;;2.30;54.10;;;;;;5098109;28;20039;-42
2021/01/12 07:14:46;;;;;;;41.72;17.08;;;2.30;54.30;;;;;;5097999;28;20308;-42
2021/01/12 07:17:11;;;;;;;26.33;13.05;;;2.30;54.20;;;;;;5098475;28;20028;-41
2021/01/12 07:19:37;;;;;;;28.40;14.85;;;2.30;54.80;;;;;;5096939;28;20462;-40
2021/01/12 07:22:16;;;;;;;26.60;13.82;;;2.30;54.30;;;;;;5097604;28;20468;-40
2021/01/12 07:24:45;;;;;;;33.28;15.60;;;2.30;54.20;;;;;;5096829;28;20416;-41
2021/01/12 07:27:16;;;;;;;31.67;14.90;;;2.40;54.30;;;;;;5097831;28;20042;-41
2021/01/12 07:30:07;;;;;;;27.98;13.70;;;2.30;54.50;;;;;;5095797;28;20038;-41
2021/01/12 07:32:38;;;;;;;29.77;13.00;;;2.40;54.50;;;;;;5097932;28;20093;-41
2021/01/12 07:35:11;;;;;;;27.60;14.60;;;2.40;54.60;;;;;;5097535;28;20032;-41
2021/01/12 07:37:42;;;;;;;29.02;14.18;;;2.50;54.40;;;;;;5096947;28;20116;-40
2021/01/12 07:40:14;;;;;;;32.45;15.27;;;2.40;54.00;;;;;;5109260;27;20030;-42
2021/01/12 07:42:51;;;;;;;28.02;14.18;;;2.40;54.30;;;;;;5098284;28;20437;-40
2021/01/12 07:45:19;;;;;;;37.28;15.25;;;2.40;54.30;;;;;;5104167;28;20585;-40
2021/01/12 07:47:49;;;;;;;26.77;15.27;;;2.40;54.30;;;;;;5098790;28;20119;-41
2021/01/12 07:50:15;;;;;;;32.03;15.45;;;2.40;54.40;;;;;;5094924;28;20065;-41
2021/01/12 07:52:41;;;;;;;31.40;15.40;;;2.40;54.70;;;;;;5095238;28;20036;-41
2021/01/12 07:55:16;;;;;;;37.70;18.10;;;2.40;54.70;;;;;;5103335;28;20108;-41
2021/01/12 07:57:42;;;;;;;26.58;15.77;;;2.40;54.60;;;;;;5114663;28;20341;-42
2021/01/12 08:00:10;;;;;;;32.33;16.52;;;2.40;54.80;;;;;;5093875;28;20020;-40
2021/01/12 08:02:38;;;;;;;36.88;17.75;;;2.40;54.70;;;;;;5106906;28;20036;-42
2021/01/12 08:05:07;;;;;;;32.30;16.40;;;2.40;54.40;;;;;;5095998;28;20391;-40
2021/01/12 08:07:34;;;;;;;38.45;21.88;;;2.40;54.50;;;;;;5095040;28;20396;-41
2021/01/12 08:09:59;;;;;;;29.48;15.85;;;2.40;54.40;;;;;;5093471;28;20024;-40
2021/01/12 08:12:26;;;;;;;49.60;24.55;;;2.40;54.70;;;;;;5100791;28;20221;-41
2021/01/12 08:14:54;;;;;;;51.03;26.15;;;2.50;55.00;;;;;;5115598;28;20119;-41
2021/01/12 08:17:27;;;;;;;59.05;27.08;;;2.50;55.20;;;;;;5115777;28;20118;-41
2021/01/12 08:19:54;;;;;;;47.28;20.73;;;2.50;55.00;;;;;;5106339;28;20060;-40
2021/01/12 08:22:21;;;;;;;30.23;16.13;;;2.60;55.20;;;;;;5088095;28;20419;-42
2021/01/12 08:24:47;;;;;;;49.75;22.13;;;2.60;55.00;;;;;;5096425;28;20031;-42
2021/01/12 08:27:19;;;;;;;36.90;19.67;;;2.70;55.10;;;;;;5097441;28;20115;-42
2021/01/12 08:29:45;;;;;;;28.48;13.75;;;2.80;55.10;;;;;;5096818;28;20475;-42
2021/01/12 08:32:13;;;;;;;46.25;17.92;;;2.90;55.00;;;;;;5094289;28;20067;-42
2021/01/12 08:35:10;;;;;;;24.75;12.40;;;3.00;54.60;;;;;;5087605;28;20111;-42
2021/01/12 08:37:38;;;;;;;20.85;11.50;;;3.00;54.10;;;;;;5076611;28;20119;-42
2021/01/12 08:40:05;;;;;;;26.88;14.45;;;3.10;54.10;;;;;;5076418;28;20442;-42
2021/01/12 08:42:33;;;;;;;28.40;12.13;;;3.10;54.00;;;;;;5076392;28;20079;-43
2021/01/12 08:45:00;;;;;;;27.48;13.93;;;3.20;53.80;;;;;;5075603;28;20055;-44
2021/01/12 08:47:26;;;;;;;36.15;14.77;;;3.30;53.80;;;;;;5076136;28;20032;-43
2021/01/12 08:50:04;;;;;;;31.35;16.10;;;3.30;53.70;;;;;;5076172;28;20028;-45
2021/01/12 08:52:30;;;;;;;33.13;15.82;;;3.40;53.10;;;;;;5076253;28;20080;-43
2021/01/12 08:54:56;;;;;;;36.33;18.83;;;3.50;52.80;;;;;;5075691;28;20028;-43
2021/01/12 08:57:22;;;;;;;33.63;16.85;;;3.50;52.60;;;;;;5092498;28;20039;-43
2021/01/12 08:59:48;;;;;;;42.00;17.75;;;3.50;52.40;;;;;;5095624;28;20027;-42
2021/01/12 09:02:21;;;;;;;39.85;18.00;;;3.50;52.30;;;;;;5095998;28;20035;-43
2021/01/12 09:04:59;;;;;;;33.25;15.90;;;3.40;52.10;;;;;;5095832;28;20020;-45
2021/01/12 09:07:25;;;;;;;35.08;16.25;;;3.40;51.70;;;;;;5092864;28;20088;-44
2021/01/12 09:09:52;;;;;;;25.77;14.05;;;3.40;52.00;;;;;;5097099;28;20118;-41
2021/01/12 09:12:19;;;;;;;47.42;23.95;;;3.40;52.10;;;;;;5096179;28;20119;-41
2021/01/12 09:14:47;;;;;;;50.10;22.35;;;3.30;51.90;;;;;;5096088;28;20024;-48
2021/01/12 09:17:16;;;;;;;33.72;17.00;;;3.30;52.10;;;;;;5095657;28;20035;-42
2021/01/12 09:19:43;;;;;;;37.85;16.15;;;3.30;51.80;;;;;;5101081;28;20047;-44
2021/01/12 09:22:17;;;;;;;32.03;15.63;;;3.30;51.90;;;;;;5113474;28;20333;-42
2021/01/12 09:24:53;;;;;;;34.97;15.75;;;3.30;51.60;;;;;;5096982;28;20031;-42
2021/01/12 09:27:24;;;;;;;24.40;13.45;;;3.30;51.40;;;;;;5093506;28;20028;-42
2021/01/12 09:29:50;;;;;;;44.38;19.60;;;3.30;51.60;;;;;;5093845;28;20057;-42
2021/01/12 09:32:25;;;;;;;19.75;12.13;;;3.30;51.80;;;;;;5094836;28;20089;-43
2021/01/12 09:34:51;;;;;;;32.60;15.18;;;3.20;51.60;;;;;;5093442;28;20027;-42
2021/01/12 09:37:18;;;;;;;27.50;15.27;;;3.20;51.80;;;;;;5095188;28;20095;-42
2021/01/12 09:39:52;;;;;;;23.50;13.00;;;3.20;51.70;;;;;;5093388;28;20437;-42
2021/01/12 09:42:20;;;;;;;22.15;13.07;;;3.20;51.70;;;;;;5094450;28;20146;-43
2021/01/12 09:44:47;;;;;;;17.85;11.73;;;3.20;51.70;;;;;;5093458;28;20032;-42
2021/01/12 09:47:13;;;;;;;47.75;18.90;;;3.20;51.90;;;;;;5093675;28;20456;-43
2021/01/12 09:49:38;;;;;;;36.85;17.13;;;3.20;52.00;;;;;;5094146;28;20024;-43
2021/01/12 09:52:04;;;;;;;31.85;17.20;;;3.20;52.00;;;;;;5094437;28;20043;-44
2021/01/12 09:54:31;;;;;;;23.25;12.85;;;3.30;51.60;;;;;;5092476;28;20373;-43
2021/01/12 09:56:57;;;;;;;29.15;13.82;;;3.30;51.70;;;;;;5093589;28;20032;-42
2021/01/12 09:59:23;;;;;;;32.67;16.23;;;3.30;51.70;;;;;;5093805;28;20085;-42
2021/01/12 10:01:58;;;;;;;30.63;13.57;;;3.40;51.80;;;;;;5094188;28;20043;-43
2021/01/12 10:04:23;;;;;;;38.70;17.50;;;3.40;51.60;;;;;;5093276;28;20360;-41
2021/01/12 10:07:00;;;;;;;39.95;18.58;;;3.40;51.60;;;;;;5095030;28;20431;-42
2021/01/12 10:09:28;;;;;;;45.15;21.75;;;3.50;51.40;;;;;;5093213;28;20430;-42
2021/01/12 10:11:54;;;;;;;31.25;15.65;;;3.50;51.60;;;;;;5095196;28;20036;-42
2021/01/12 10:14:21;;;;;;;26.25;13.32;;;3.50;52.20;;;;;;5094555;28;20050;-43
2021/01/12 10:16:48;;;;;;;37.08;17.98;;;3.50;51.40;;;;;;5095459;28;20332;-42
2021/01/12 10:19:14;;;;;;;33.70;16.45;;;3.60;51.40;;;;;;5094520;28;20425;-44
2021/01/12 10:21:39;;;;;;;26.25;12.73;;;3.60;51.50;;;;;;5095177;28;20060;-42
2021/01/12 10:24:06;;;;;;;31.70;14.95;;;3.60;51.30;;;;;;5094915;28;20089;-44
2021/01/12 10:26:32;;;;;;;24.58;12.98;;;3.60;50.90;;;;;;5099077;28;20024;-41
2021/01/12 10:28:59;;;;;;;22.58;11.05;;;3.60;51.20;;;;;;5098008;28;20074;-43
2021/01/12 10:31:25;;;;;;;18.70;10.32;;;3.60;51.10;;;;;;5098807;28;20031;-43
2021/01/12 10:33:51;;;;;;;25.35;12.18;;;3.60;50.90;;;;;;5098046;28;20074;-43
2021/01/12 10:36:19;;;;;;;15.80;8.98;;;3.60;50.80;;;;;;5098632;28;20024;-43
2021/01/12 10:38:46;;;;;;;21.80;10.45;;;3.60;50.60;;;;;;5098557;28;20417;-42
2021/01/12 10:41:12;;;;;;;17.38;9.27;;;3.60;50.40;;;;;;5098592;28;20085;-43
2021/01/12 10:43:38;;;;;;;32.97;14.32;;;3.70;50.00;;;;;;5099414;28;20059;-43
2021/01/12 10:46:05;;;;;;;29.25;14.43;;;3.70;50.10;;;;;;5098920;28;20035;-43
2021/01/12 10:48:30;;;;;;;39.13;16.02;;;3.70;50.00;;;;;;5099080;28;20028;-43
2021/01/12 10:50:56;;;;;;;45.85;15.73;;;3.70;49.90;;;;;;5099351;28;20054;-42
2021/01/12 10:53:22;;;;;;;21.45;11.30;;;3.70;50.10;;;;;;5098841;28;20067;-44
2021/01/12 10:55:49;;;;;;;19.90;9.23;;;3.70;50.10;;;;;;5098999;28;20032;-43
2021/01/12 10:58:15;;;;;;;29.15;12.73;;;3.70;50.20;;;;;;5099063;28;20027;-42
2021/01/12 11:00:41;;;;;;;28.88;11.27;;;3.70;50.20;;;;;;5098412;28;20409;-43
2021/01/12 11:03:07;;;;;;;40.05;15.23;;;3.70;50.10;;;;;;5099357;28;20372;-43
2021/01/12 11:05:36;;;;;;;19.65;10.25;;;3.70;49.90;;;;;;5096984;28;20069;-44
2021/01/12 11:08:03;;;;;;;28.42;13.75;;;3.70;50.20;;;;;;5098518;28;20032;-43
2021/01/12 11:10:30;;;;;;;32.72;14.50;;;3.70;50.30;;;;;;5097789;28;20357;-42
2021/01/12 11:13:00;;;;;;;30.55;11.65;;;3.70;50.50;;;;;;5098198;28;20135;-42
2021/01/12 11:15:26;;;;;;;18.83;10.60;;;3.60;50.60;;;;;;5098003;28;20028;-42
2021/01/12 11:17:52;;;;;;;20.77;10.65;;;3.70;50.80;;;;;;5098237;28;20032;-43
2021/01/12 11:20:19;;;;;;;13.65;8.65;;;3.70;50.90;;;;;;5097279;28;20090;-42
2021/01/12 11:22:46;;;;;;;27.02;12.02;;;3.80;50.80;;;;;;5098129;28;20036;-44
2021/01/12 11:25:13;;;;;;;18.55;9.73;;;3.80;50.80;;;;;;5097378;28;20024;-42
2021/01/12 11:27:39;;;;;;;31.85;14.65;;;3.80;50.70;;;;;;5097795;28;20039;-42
2021/01/12 11:30:07;;;;;;;18.55;8.98;;;3.80;50.70;;;;;;5097275;28;20089;-42
2021/01/12 11:32:34;;;;;;;24.23;10.15;;;3.80;50.80;;;;;;5098133;28;20539;-42
2021/01/12 11:35:01;;;;;;;18.17;10.90;;;3.90;50.50;;;;;;5097266;28;20398;-43
2021/01/12 11:37:29;;;;;;;21.00;9.48;;;3.90;50.40;;;;;;5095697;28;20032;-43
2021/01/12 11:39:56;;;;;;;27.67;12.70;;;3.90;50.50;;;;;;5097055;28;20711;-43
2021/01/12 11:42:22;;;;;;;35.90;17.15;;;3.80;50.80;;;;;;5098163;28;20032;-43
2021/01/12 11:44:49;;;;;;;26.92;13.77;;;3.80;50.80;;;;;;5094720;28;20033;-43
2021/01/12 11:47:14;;;;;;;12.73;6.85;;;3.80;50.70;;;;;;5097292;28;20077;-43
2021/01/12 11:49:40;;;;;;;13.18;6.10;;;3.80;51.00;;;;;;5096300;28;20104;-43
2021/01/12 11:52:09;;;;;;;13.82;7.03;;;3.80;51.10;;;;;;5097444;28;20048;-43
2021/01/12 11:54:35;;;;;;;22.35;6.82;;;3.80;51.00;;;;;;5096543;28;20085;-42
2021/01/12 11:57:05;;;;;;;7.38;4.35;;;3.80;51.40;;;;;;5096079;28;20028;-42
2021/01/12 11:59:31;;;;;;;10.82;5.43;;;3.80;51.50;;;;;;5096195;28;20427;-42
2021/01/12 12:01:57;;;;;;;9.00;4.65;;;3.80;51.70;;;;;;5095557;28;20020;-43
2021/01/12 12:04:25;;;;;;;10.40;5.15;;;3.80;52.00;;;;;;5096446;28;20482;-43
2021/01/12 12:06:53;;;;;;;15.88;7.50;;;3.80;52.20;;;;;;5097048;28;20373;-42
2021/01/12 12:09:20;;;;;;;10.95;6.85;;;3.80;52.30;;;;;;5096532;28;20506;-42
2021/01/12 12:11:46;;;;;;;11.85;5.53;;;3.80;52.40;;;;;;5097144;28;20032;-43
2021/01/12 12:14:13;;;;;;;20.65;9.45;;;3.80;52.60;;;;;;5095972;28;20583;-42
2021/01/12 12:16:42;;;;;;;21.83;8.73;;;3.80;52.70;;;;;;5094327;28;20502;-41
2021/01/12 12:19:08;;;;;;;34.95;10.10;;;3.80;52.80;;;;;;5094409;28;20032;-42
2021/01/12 12:21:48;;;;;;;34.58;14.65;;;3.70;52.90;;;;;;5096013;28;20067;-46
2021/01/12 12:24:15;;;;;;;18.70;8.25;;;3.80;53.10;;;;;;5096131;28;20032;-47
2021/01/12 12:26:42;;;;;;;20.90;8.30;;;3.80;53.20;;;;;;5096962;28;20028;-47
2021/01/12 12:29:08;;;;;;;13.45;6.28;;;3.80;53.10;;;;;;5095640;28;20024;-47
2021/01/12 12:31:34;;;;;;;33.17;12.00;;;3.80;53.10;;;;;;5095540;28;20054;-46
2021/01/12 12:34:00;;;;;;;26.75;11.95;;;3.80;53.00;;;;;;5096377;28;20392;-50
2021/01/12 12:36:26;;;;;;;11.93;6.35;;;3.80;53.10;;;;;;5096248;28;20035;-40
2021/01/12 12:38:51;;;;;;;12.27;6.68;;;3.80;53.00;;;;;;5095818;28;20071;-49
2021/01/12 12:41:17;;;;;;;14.15;7.82;;;3.80;52.80;;;;;;5096320;28;20020;-45
2021/01/12 12:43:45;;;;;;;14.07;8.20;;;3.80;52.80;;;;;;5095597;28;20353;-44